Bellingham International Airport Bellingham US
ICAO: KBLI
IATA: BLI
Category: Medium
Scheduled Services: Yes

Elevation: 170 ft
TransAlt. 18000 ft.

Airport Communications:
VICTORIA APP/DEP:132.7
ATIS:134.45
CTAF:124.9
GND:127.4
SEATTLE RDO:122.15
TWR:124.9
UNICOM:122.95

KBLI Zoom In..

Runways:

(A) RW 16 length 6701 ft width 150 ft
ILS 108.50 / hdg 160

(B) RW 34 length 6701 ft width 150 ft
---- / hdg 340

Location; KBLI
Day. 24 / Time. 01.53 Zulu
* Altimeter: 29.74
* Temperature: 09° c. 48.2°f.
* Wind from: 090° Speed 04 kn.
Dewpoint: 04° c.
Visibility: 10 Statute Miles.
Clouds: Overcast 3200 ft.

KBLI 240153Z 09004KT 10SM OVC032 09/04 A2974 RMK AO2 RAE0056 SLP080 P0000 T00890039


Wind From 090°
Speed 04 kn.

YouTube Music Video
 
jpsmedia.com for Web Design  worldairports.se 2018   terms of use